YOU ARE USING AN OUTDATED BROWSER
It is limiting your browsing experience. Please upgrade to a modern browser.

PATRA (Port)

Country: Greece Country: Greece (GR)
Latitude / Longitude: 38.24067° / 21.727675° Show on Map Show on Map
Local Time:  1490555347
Un/locode: GRGPA
Vessels in Port: 8
Expected Arrivals: 11

Recent Arrivals & Departures


Vessel Name
Arrival (UTC)
Arrival (LT)
Arrival (MT)
Arrival
Departure (UTC)
Departure (LT)
Departure (MT)
Departure
Vessel Type: Fishing  OSIA PARASKEVI 1490501580 1490501580 1490501580 14 hours, 56 minutes ago 1490547540 1490558340 1490547540 2 hours, 10 minutes ago
Vessel Type: Fishing  THANASIS CH 1490505540 1490505540 1490505540 13 hours, 50 minutes ago 1490547060 1490557860 1490547060 2 hours, 18 minutes ago
Vessel Type: Tankers  AEGEAN TIFFANY 1490537820 1490537820 1490537820 4 hours, 52 minutes ago 1490546700 1490557500 1490546700 2 hours, 24 minutes ago
Vessel Type: Fishing  AGIA ANNA 1490499960 1490499960 1490499960 15 hours, 23 minutes ago 1490546580 1490557380 1490546580 2 hours, 26 minutes ago
Vessel Type: Passenger Vessels  SUPERFAST XII 1490537220 1490537220 1490537220 5 hours, 2 minutes ago 1490546520 1490557320 1490546520 2 hours, 27 minutes ago
Vessel Type: Fishing  AGIOS GERASIMOS 1490501580 1490501580 1490501580 14 hours, 56 minutes ago 1490545560 1490556360 1490545560 2 hours, 43 minutes ago
Vessel Type: Passenger Vessels  CRUISE EUROPA 1490536800 1490536800 1490536800 5 hours, 9 minutes ago 1490542800 1490553600 1490542800 3 hours, 29 minutes ago
Vessel Type: Passenger Vessels  EUROFERRY EGNAZIA 1490531100 1490531100 1490531100 6 hours, 44 minutes ago 1490542620 1490553420 1490542620 3 hours, 32 minutes ago
Vessel Type: Passenger Vessels  SUPERFAST I 1490523240 1490523240 1490523240 8 hours, 55 minutes ago 1490541540 1490552340 1490541540 3 hours, 50 minutes ago
Vessel Type: Tankers  AEGEAN TIFFANY 1490450940 1490450940 1490450940 1 day, 5 hours ago 1490537220 1490548020 1490537220 5 hours, 2 minutes ago

Expected Arrivals


Vessel Name
Scheduled Arrival (UTC)
Scheduled Arrival (LT)
Scheduled Arrival (MT)
Scheduled Arrival
Estimated Arrival (UTC)
Estimated Arrival (LT)
Estimated Arrival (MT)
Estimated Arrival
Vessel Type: Tugs & Special Craft  APOLLON 1490475600 1490482800 1490482800 22 hours, 9 minutes ago 1490589480 1490589480 1490589480 in 9 hours, 28 minutes
Vessel Type: Tankers  LELI 1490517000 1490527800 1490527800 10 hours, 39 minutes ago 1490740080 1490740080 1490740080 in 2 days, 3 hours
Vessel Type: Passenger Vessels  ASTERION 1490554800 1490565600 1490565600 9 minutes ago 1490557860 1490557860 1490557860 in 41 minutes
Vessel Type: Passenger Vessels  HELLENIC SPIRIT 1490554800 1490565600 1490565600 9 minutes ago 1490740200 1490740200 1490740200 in 2 days, 3 hours
Vessel Type: Passenger Vessels  SUPERFAST II 1490590800 1490601600 1490601600 in 9 hours, 50 minutes 1490645340 1490645340 1490645340 in 1 day
Vessel Type: Cargo Vessels  AMETHYST 1490598000 1490608800 1490608800 in 11 hours, 50 minutes 1490588460 1490588460 1490588460 in 9 hours, 11 minutes
Vessel Type: Passenger Vessels  OLYMPIC CHAMPION 1490616000 1490626800 1490626800 in 16 hours, 50 minutes 1490616240 1490616240 1490616240 in 16 hours, 54 minutes
Vessel Type: Passenger Vessels  OLYMPIC CHAMPION 1490619600 1490630400 1490630400 in 17 hours, 50 minutes 1490733960 1490733960 1490733960 in 2 days, 1 hour
Vessel Type: Passenger Vessels  CRUISE OLYMPIA 1490625000 1490635800 1490635800 in 19 hours, 20 minutes 1490690460 1490690460 1490690460 in 1 day, 13 hours
Vessel Type: Passenger Vessels  HELLENIC SPIRIT 1490637600 1490648400 1490648400 in 22 hours, 50 minutes 1490637240 1490637240 1490637240 in 22 hours, 44 minutes

Wind Forecast


    
Time (UTC)
Speed
Direction
Temperature
1490551200 12 knots 247° 14°C
1490562000 12 knots 251° 14°C
1490572800 9 knots 262° 12°C
1490583600 3 knots 284° 13°C
1490594400 6 knots 80° 11°C
1490605200 11 knots 86° 13°C
1490616000 18 knots 80° 13°C
1490626800 21 knots 89° 12°C
1490637600 21 knots 85° 11°C
1490648400 20 knots 84° 11°C
1490659200 20 knots 77° 11°C
1490670000 20 knots 73° 10°C
1490680800 19 knots 66° 10°C
1490691600 18 knots 54° 11°C
1490702400 14 knots 47° 12°C
1490713200 9 knots 44° 13°C
1490724000 5 knots 70° 12°C